Weather observations for the past three days for
Natchitoches, Natchitoches Regional Airport
Metric (Imperial)
Date Time (cdt) Wind (kph) Vis. (km) Weather Sky Cond. Temperature (ºC) Relative Humidity Wind Chill (°C) Heat Index (°C) Pressure Precipitation (cm)
Air Dwpt 6 hour altimeter (cm) sea level (mb) 1 hr 3 hr 6 hr
Max. Min.
07 18:15 Calm 16.09 Fair CLR 21.2 14.1 64% 76.15 0.0
07 17:55 Calm 16.09 Fair CLR 21.4 13.8 62% 76.17 0.0
07 17:35 Calm 16.09 Fair CLR 21.7 14 62% 76.1 0.0
07 17:15 Calm 16.09 Fair CLR 22.5 13.7 58% 76.12 0.0
07 16:55 Calm 16.09 Fair CLR 22 13.5 59% 76.15 0.0
07 16:35 Calm 16.09 Fair CLR 21.9 13.9 61% 76.15 0.0
07 16:15 Calm 16.09 Fair CLR 21.9 13.7 60% 76.15 0.0
07 15:55 Calm 16.09 Fair CLR 21.6 13.3 59% 76.17 0.0
07 15:35 Calm 16.09 Fair CLR 21.5 13.5 60% 76.17 0.0
07 15:15 Calm 16.09 Fair CLR 21.5 13.1 59% 76.2 0.0
07 14:55 Calm 16.09 Fair CLR 21.5 12.7 57% 76.2 0.0
07 14:35 N 15 16.09 Fair CLR 21.7 13.3 59% 76.23 0.0
07 14:15 NE 11 16.09 Partly Cloudy SCT035 21.8 13.5 59% 76.23 0.0
07 13:55 Calm 16.09 Fair CLR 22.1 13.6 59% 76.23 0.0
07 13:35 Calm 16.09 Fair CLR 21.2 13.4 61% 76.23 0.0
07 13:15 NE 11 16.09 Fair CLR 22 14.2 61% 76.23 0.0
07 12:55 Calm 16.09 Fair CLR 20.9 13.9 20.9 12.7 64% 76.25 0.0
07 12:35 N 13 16.09 Fair CLR 20.3 13.5 65% 76.28 0.0
07 12:15 NE 15 16.09 Fair CLR 19.9 13.5 67% 76.28 0.0
07 11:55 Calm 16.09 Partly Cloudy SCT019 18.9 13.4 71% 76.35 0.0
07 11:35 Calm 16.09 Partly Cloudy SCT019 17.1 12.5 75% 76.35 0.0
07 11:15 Calm 16.09 Partly Cloudy SCT015 17.3 12.7 75% 76.33 0.0
07 10:55 Calm 16.09 Mostly Cloudy BKN015 17 12.7 76% 76.38 0.0
07 10:35 Calm 16.09 Overcast OVC013 16 12.2 78% 76.35 0.0
07 10:15 Calm 16.09 Overcast OVC013 15.1 11.9 81% 76.38 0.0
07 09:55 Calm 16.09 Overcast OVC013 14.8 11.8 82% 76.38 0.0
07 09:35 N 15 16.09 Overcast OVC011 14.3 11.8 85% 76.38 0.0
07 09:15 N 6 16.09 Overcast OVC011 14 11.8 87% 76.35 0.0
07 08:55 NE 11 16.09 Overcast OVC011 13.7 11.6 87% 76.33 0.0
07 08:35 N 15 16.09 Overcast OVC011 13.6 11.9 90% 76.33 0.0
07 08:15 Calm 16.09 Overcast OVC011 13.3 12 92% 76.35 0.0
07 07:55 Calm 16.09 Overcast OVC011 13.3 12.2 93% 76.33 0.0
07 07:35 Calm 16.09 Overcast OVC011 13.1 12 93% 76.3 0.0
07 07:15 Calm 16.09 Overcast OVC011 12.8 11.8 94% 76.28 0.0
07 06:55 Calm 16.09 Overcast OVC011 12.8 11.9 14.3 12.5 94% 76.25 0.0
07 06:35 Calm 16.09 Overcast OVC009 12.7 11.7 94% 76.2 0.0
07 06:15 Calm 16.09 Overcast OVC009 12.6 11.9 96% 76.2 0.0
07 05:55 Calm 16.09 Overcast OVC009 12.6 11.9 96% 76.2 0.0
07 05:35 Calm 16.09 Overcast OVC009 12.7 12 96% 76.2 0.0
07 05:15 Calm 16.09 Overcast OVC009 12.6 12.1 97% 76.17 0.0
07 04:55 N 13 16.09 Overcast OVC007 12.6 12.1 97% 76.17 0.0
07 04:35 N 7 16.09 Overcast OVC009 12.8 12.6 99% 76.15 0.0
07 04:15 Calm 16.09 Overcast BKN009 OVC013 12.8 12.8 100% 76.15 0.0
07 03:55 N 13 16.09 Overcast OVC009 12.8 12.8 100% 76.17 0.0
07 03:35 N 15 8.05 Light Rain BKN007 OVC010 13.1 13.1 100% 76.15 0.0
07 03:15 N 13 11.27 Overcast OVC007 13.2 13.2 100% 76.15 0.0
07 02:55 N 13 16.09 Overcast OVC007 13.5 13.5 100% 76.2 0.0
07 02:35 N 11 16.09 Overcast OVC009 13.5 13.5 100% 76.15 0.0
07 02:15 N 17 16.09 Overcast OVC009 13.5 13.5 100% 76.15 0.0
07 01:55 N 11 11.27 Overcast OVC007 13.6 13.6 100% 76.17 0.0
07 01:35 N 9 11.27 Light Drizzle OVC007 13.9 13.9 100% 76.17 0.0
07 01:15 N 13 16.09 Overcast OVC009 14.1 13.9 99% 76.17 0.0
07 00:55 Calm 16.09 Overcast OVC011 14.5 13.6 18.5 14.5 94% 76.15 0.0
07 00:35 N 7 16.09 Overcast OVC013 14.5 13.3 93% 76.17 0.0
07 00:15 N 9 16.09 Overcast OVC011 14.6 13.3 92% 76.12 0.0
06 23:55 N 15 G 26 16.09 Overcast OVC009 14.6 13.5 93% 76.17 0.0
06 23:35 N 17 16.09 Overcast OVC007 14.9 14.6 98% 76.1 0.0
06 23:15 N 11 16.09 Overcast OVC007 15 14.8 99% 76.1 0.0
06 22:55 N 17 16.09 Overcast OVC007 15 15 100% 76.07 0.0
06 22:35 N 17 16.09 Overcast OVC007 15.2 15.2 100% 76.07 0.0
06 22:15 N 15 16.09 Overcast OVC009 15.7 15.6 99% 76.05 0.0
06 21:55 N 9 16.09 Overcast OVC009 15.8 15.5 98% 76.02 0.0
06 21:35 N 13 16.09 Overcast OVC009 16 16 100% 76.02 0.0
06 21:15 N 15 16.09 Overcast OVC009 16.2 15.8 98% 76.02 0.0
06 20:55 N 7 16.09 Overcast OVC011 16.3 16.1 99% 75.97 0.0
06 20:35 N 17 16.09 Overcast OVC009 16.5 16.3 99% 75.92 0.0
06 20:15 N 11 16.09 Overcast OVC009 17 17 100% 75.92 0.0
06 19:55 N 13 16.09 Overcast OVC009 17.5 17.5 100% 75.9 0.0
06 19:35 N 15 16.09 Overcast OVC010 17.8 17.8 100% 75.84 0.0
06 19:15 N 15 16.09 Overcast BKN010 BKN060 OVC070 18.2 18.2 100% 75.82 0.0
06 18:55 N 9 16.09 Light Rain SCT010 BKN045 OVC060 18.5 18.5 28.7 18.5 100% 75.79 0.0
06 18:35 N 15 16.09 Light Rain SCT012 BKN030 OVC060 19.6 19.6 100% 75.82 0.0
06 18:15 N 20 16.09 Thunderstorm in Vicinity SCT015 SCT021 OVC028 20.5 20.5 100% 75.79 0.0
06 17:55 N 17 6.44 Rain BKN015 BKN027 OVC036 21.7 21.7 100% 75.74 0.0
06 17:35 N 13 2.41 Heavy Rain SCT007 BKN014 OVC026 24.3 23 92% 24 75.74 0.0
06 17:15 Calm 11.27 Overcast OVC026 27.5 22.8 76% 30 75.67 0.0
06 16:55 Calm 11.27 Mostly Cloudy BKN028 BKN065 28.1 22.6 72% 31 75.67 0.0
06 16:35 Calm 16.09 Mostly Cloudy SCT065 BKN070 28.1 22.8 73% 31 75.69 0.0
06 16:15 Calm 16.09 Mostly Cloudy BKN065 28.1 22.2 70% 31 75.69 0.0
06 15:55 Calm 16.09 Mostly Cloudy SCT024 SCT055 BKN070 28.4 22.4 70% 31 75.69 0.0
06 15:35 Calm 16.09 Mostly Cloudy BKN024 BKN034 BKN070 28.3 22.7 72% 32 75.69 0.0
06 15:15 Calm 16.09 Mostly Cloudy SCT027 BKN034 BKN044 28.3 22.9 73% 32 75.72 0.0
06 14:55 Calm 16.09 Partly Cloudy SCT021 SCT031 SCT046 27.9 22.8 74% 31 75.72 0.0
06 14:35 Calm 16.09 Partly Cloudy SCT021 SCT031 SCT039 28.5 23.3 73% 32 75.72 0.0
06 14:15 Calm 16.09 Partly Cloudy SCT020 SCT034 SCT044 27.9 22.8 74% 31 75.74 0.0
06 13:55 Calm 16.09 Partly Cloudy SCT020 SCT030 SCT036 27.7 22.7 74% 31 75.79 0.0
06 13:35 Calm 16.09 Mostly Cloudy SCT030 BKN036 BKN045 27.4 22.8 76% 30 75.84 0.0
06 13:15 Calm 16.09 Mostly Cloudy SCT022 BKN029 BKN037 27.3 22.5 75% 30 75.9 0.0
06 12:55 Calm 16.09 Overcast BKN024 BKN040 OVC049 26.8 22.5 27.8 22.3 77% 29 75.92 0.0
06 12:35 Calm 16.09 Overcast SCT024 BKN035 OVC055 27.5 22.7 75% 30 75.92 0.0
06 12:15 Calm 16.09 Mostly Cloudy SCT027 BKN035 BKN048 27.4 22.4 74% 30 75.92 0.0
06 11:55 S 13 16.09 Partly Cloudy SCT023 SCT029 27.5 22.6 75% 30 75.9 0.0
06 11:35 Calm 16.09 Partly Cloudy SCT075 26.8 22.6 78% 29 75.92 0.0
06 11:15 Calm 16.09 Mostly Cloudy SCT021 SCT049 BKN070 26.8 22.9 79% 29 75.9 0.0
06 10:55 Calm 16.09 Overcast SCT021 BKN025 OVC060 26.3 22.6 80% 28 75.9 0.0
06 10:35 Calm 16.09 Overcast SCT016 BKN050 OVC060 26.5 22.2 77% 28 75.9 0.0
06 10:15 Calm 16.09 Overcast BKN016 BKN023 OVC050 26.5 22.8 80% 29 75.9 0.0
06 09:55 Calm 16.09 Overcast BKN016 OVC024 25.9 23.3 86% 28 75.9 0.0
06 09:35 Calm 16.09 Overcast BKN013 BKN019 OVC050 25.5 23.4 88% 27 75.9 0.0
06 09:15 Calm 16.09 Overcast OVC011 25 23.5 91% 26 75.87 0.0
06 08:55 Calm 16.09 Overcast OVC011 24.2 23.2 94% 24 75.87 0.0
06 08:35 Calm 11.27 Overcast OVC011 24.1 23.1 94% 23 75.87 0.0
06 08:15 Calm 11.27 Overcast SCT011 OVC050 24 23.2 95% 23 75.84 0.0
06 07:55 Calm 11.27 Overcast OVC050 23.6 23.1 97% 75.84 0.0
06 07:35 Calm 11.27 Overcast OVC050 23.3 23.1 99% 75.82 0.0
06 07:15 Calm 11.27 Mostly Cloudy BKN050 23.1 23.1 100% 75.79 0.0
06 06:55 Calm 11.27 Partly Cloudy SCT038 SCT055 22.2 22.2 24 22.1 100% 75.79 0.0
06 06:35 Calm 11.27 Mostly Cloudy BKN040 BKN050 22.5 22.5 100% 75.77 0.0
06 06:15 Calm 16.09 Mostly Cloudy SCT040 BKN050 23 22.5 97% 75.77 0.0
06 05:55 Calm 16.09 Mostly Cloudy BKN050 23.2 22.5 96% 75.74 0.0
06 05:35 Calm 16.09 Overcast SCT013 OVC050 23.5 22.5 94% 75.72 0.0
06 05:15 Calm 16.09 Overcast SCT013 OVC050 23.6 22.5 94% 75.74 0.0
06 04:55 S 6 16.09 Overcast OVC050 23.6 22.5 94% 75.72 0.0
06 04:35 S 13 16.09 Overcast SCT015 OVC050 23.6 22.4 93% 75.69 0.0
06 04:15 Calm 16.09 Overcast OVC015 23.5 22.5 94% 75.69 0.0
06 03:55 Calm 16.09 Overcast OVC015 23.5 22.5 94% 75.72 0.0
06 03:35 Calm 16.09 Overcast OVC015 23.2 22.5 96% 75.72 0.0
06 03:15 Calm 16.09 Overcast OVC017 23.1 22.5 96% 75.74 0.0
06 02:55 Calm 16.09 Overcast OVC015 23.6 21.8 90% 75.77 0.0
06 02:35 Calm 16.09 Overcast OVC015 23.7 21.7 89% 75.79 0.0
06 02:15 Calm 16.09 Overcast OVC015 23.8 21.6 88% 75.77 0.0
06 01:55 Calm 16.09 Overcast OVC015 24 21.6 87% 24 75.77 0.0
06 01:35 SW 11 16.09 Overcast OVC017 23.8 21.5 87% 75.74 0.0
06 01:15 Calm 16.09 Overcast OVC017 24 21.8 88% 24 75.74 0.0
06 00:55 S 13 16.09 Overcast OVC017 24 21.9 25.6 23.6 88% 24 75.72 0.0
06 00:35 Calm 16.09 Overcast OVC017 23.9 22 89% 23 75.72 0.0
06 00:15 Calm 16.09 Overcast OVC017 23.8 22 90% 75.74 0.0
05 23:55 Calm 16.09 Overcast OVC017 23.9 22 89% 23 75.74 0.0
05 23:35 Calm 16.09 Overcast OVC017 23.7 22 90% 75.72 0.0
05 23:15 S 9 16.09 Overcast OVC017 24 22 89% 24 75.72 0.0
05 22:55 Calm 16.09 Overcast OVC019 24 22 89% 24 75.72 0.0
05 22:35 Calm 16.09 Overcast BKN019 OVC029 24 21.9 88% 24 75.72 0.0
05 22:15 Calm 16.09 Overcast BKN017 OVC023 24.2 22 88% 24 75.72 0.0
05 21:55 S 11 16.09 Overcast OVC022 24.1 22 88% 24 75.69 0.0
05 21:35 S 9 16.09 Overcast OVC020 24.1 22 88% 24 75.64 0.0
05 21:15 Calm 16.09 Overcast BKN022 BKN030 OVC034 24 22.3 90% 24 75.64 0.0
05 20:55 Calm 16.09 Mostly Cloudy BKN022 BKN035 23.8 21.7 88% 75.62 0.0
05 20:35 Calm 16.09 Mostly Cloudy SCT024 BKN029 24.1 21.6 86% 24 75.59 0.0
05 20:15 Calm 16.09 Mostly Cloudy BKN026 BKN034 24.5 21.5 83% 25 75.57 0.0
05 19:55 Calm 16.09 Mostly Cloudy SCT023 BKN032 BKN050 24.7 21.5 82% 25 75.57 0.0
05 19:35 Calm 16.09 Overcast SCT023 BKN030 OVC050 25 21.6 81% 26 75.57 0.0
05 19:15 Calm 16.09 Overcast OVC027 25.6 21.5 78% 27 75.59 0.0
05 18:55 Calm 16.09 Overcast BKN027 BKN034 OVC050 25.7 21.7 27.3 24.5 79% 27 75.59 0.0
05 18:35 Calm 16.09 Overcast SCT029 SCT034 OVC050 26 21.6 77% 28 75.59 0.0
05 18:15 S 15 G 26 16.09 Overcast SCT024 BKN041 OVC048 26.1 21.5 76% 28 75.59 0.0
05 17:55 S 20 G 28 16.09 Overcast SCT024 BKN037 OVC046 26.6 21.6 74% 28 75.59 0.0
05 17:35 S 19 G 30 16.09 Overcast SCT026 BKN031 OVC048 26.6 21.7 75% 28 75.57 0.0
05 17:15 S 17 G 26 16.09 Overcast SCT030 BKN037 OVC049 27.2 21.6 72% 29 75.57 0.0
05 16:55 S 15 G 26 16.09 Overcast BKN029 BKN036 OVC041 26.7 21.4 73% 29 75.59 0.0
05 16:35 S 19 G 26 16.09 Overcast BKN027 OVC042 26.6 21.2 72% 28 75.59 0.0
05 16:15 S 13 G 28 16.09 Overcast BKN023 BKN029 OVC034 26.5 21.6 75% 28 75.62 0.0
05 15:55 S 17 G 28 16.09 Overcast SCT021 BKN029 OVC046 27 21.5 72% 29 75.62 0.0
05 15:35 S 20 G 26 16.09 Overcast SCT025 BKN030 OVC036 26.4 21.6 75% 28 75.64 0.0
05 15:15 S 11 16.09 Overcast BKN023 BKN028 OVC034 25.9 21.5 77% 27 75.67 0.0
05 14:55 S 11 16.09 Overcast BKN022 BKN028 OVC034 25.7 21.3 77% 27 75.69 0.0
05 14:35 S 13 16.09 Overcast OVC022 25.4 21.1 77% 27 75.69 0.0
05 14:15 S 13 16.09 Overcast OVC022 25.1 20.8 77% 26 75.69 0.0
05 13:55 S 11 16.09 Overcast OVC022 25 20.6 77% 26 75.69 0.0
05 13:35 S 17 G 26 11.27 Overcast OVC022 24.7 20.4 77% 25 75.72 0.0
05 13:15 SW 13 G 26 16.09 Overcast OVC022 24.5 20.4 78% 25 75.72 0.0
05 12:55 S 19 G 28 16.09 Overcast OVC022 24.7 20.2 25 18 76% 26 75.72 0.0
05 12:35 S 15 G 30 16.09 Overcast OVC022 24.5 20.3 78% 25 75.72 0.0
05 12:15 S 17 16.09 Overcast SCT024 BKN030 OVC039 24.6 20.1 76% 25 75.74 0.0
05 11:55 S 13 16.09 Overcast SCT029 OVC039 25 20.1 74% 26 75.74 0.0
05 11:35 S 9 16.09 Overcast SCT021 OVC026 24.4 20 77% 25 75.77 0.0
05 11:15 S 13 16.09 Overcast SCT022 BKN026 OVC038 24 19.8 77% 25 75.77 0.0
05 10:55 S 11 16.09 Overcast BKN020 OVC038 23.7 19.9 79% 75.77 0.0
05 10:35 Calm 16.09 Overcast OVC018 23 19.6 81% 75.74 0.0
05 10:15 S 13 16.09 Overcast BKN018 OVC023 23 19.4 80% 75.74 0.0
05 09:55 S 11 16.09 Overcast OVC018 22.7 19.5 82% 75.74 0.0
05 09:35 Calm 16.09 Overcast OVC018 21.9 19.5 86% 75.77 0.0
05 09:15 Calm 16.09 Overcast OVC018 21 19.5 91% 75.77 0.0
05 08:55 Calm 16.09 Overcast BKN018 BKN025 OVC031 20.5 18.9 91% 75.77 0.0
05 08:35 Calm 16.09 Overcast SCT018 OVC029 19.9 18.6 92% 75.74 0.0
05 08:15 Calm 16.09 Overcast OVC032 19.3 18.4 95% 75.77 0.0
05 07:55 Calm 16.09 Overcast OVC032 19 18.1 95% 75.74 0.0
05 07:35 Calm 16.09 Overcast OVC028 18.6 17.9 96% 75.72 0.0
05 07:15 Calm 16.09 Overcast OVC030 18.2 17.7 97% 75.74 0.0
05 06:55 Calm 16.09 Overcast OVC030 17.8 17.5 18.3 16.5 98% 75.72 0.0
05 06:35 Calm 16.09 Overcast OVC032 17.9 17.3 96% 75.69 0.0
05 06:15 Calm 16.09 Overcast OVC034 17.7 17.3 98% 75.69 0.0
05 05:55 Calm 16.09 Overcast OVC034 17.6 17.2 98% 75.69 0.0
05 05:35 Calm 16.09 Overcast SCT027 OVC034 17.4 17.2 99% 75.72 0.0
05 05:15 Calm 16.09 Overcast BKN027 OVC033 17.2 17.1 99% 75.74 0.0
05 04:55 Calm 16.09 Overcast OVC025 17.3 17 98% 75.77 0.0
05 04:35 Calm 16.09 Overcast OVC025 17.6 17 96% 75.77 0.0
05 04:15 Calm 16.09 Overcast SCT025 OVC034 17.5 16.9 96% 75.74 0.0
05 03:55 Calm 16.09 Overcast SCT027 OVC032 17.6 17 96% 75.74 0.0
05 03:35 Calm 16.09 Overcast SCT025 OVC034 17.2 17 99% 75.77 0.0
05 03:15 Calm 16.09 Mostly Cloudy SCT025 BKN036 16.5 16.5 100% 75.79 0.0
05 02:55 Calm 16.09 Fair CLR 16.7 16.4 98% 75.77 0.0
05 02:35 Calm 16.09 Fair CLR 16.7 16.3 98% 75.79 0.0
05 02:15 Calm 16.09 Fair CLR 17.2 16.2 94% 75.82 0.0
05 01:55 Calm 16.09 Mostly Cloudy BKN027 17.7 15.7 88% 75.82 0.0
05 01:35 Calm 16.09 Partly Cloudy SCT027 17.6 15.9 90% 75.82 0.0
05 01:15 Calm 16.09 Fair CLR 18.1 15.7 86% 75.82 0.0
05 00:55 Calm 16.09 Fair CLR 18.5 15.7 24.4 18.5 84% 75.84 0.0
05 00:35 Calm 16.09 Fair CLR 18.8 15.7 82% 75.84 0.0
05 00:15 Calm 16.09 Fair CLR 19.1 15.7 81% 75.84 0.0
04 23:55 S 11 16.09 Fair CLR 19.2 15.6 80% 75.84 0.0
04 23:35 S 13 16.09 Fair CLR 19.3 15.6 79% 75.87 0.0
04 23:15 S 11 16.09 Fair CLR 19.1 15.5 80% 75.9 0.0
04 22:55 S 11 16.09 Fair CLR 19.1 15.4 79% 75.9 0.0
04 22:35 S 9 16.09 Fair CLR 19.7 15.2 75% 75.87 0.0
04 22:15 Calm 16.09 Fair CLR 19.4 15.1 76% 75.87 0.0
04 21:55 Calm 16.09 Fair CLR 20.4 15.1 72% 75.84 0.0
04 21:35 Calm 16.09 Fair CLR 19.4 15 76% 75.82 0.0
04 21:15 Calm 16.09 Fair CLR 20.1 15 73% 75.82 0.0
04 20:55 Calm 16.09 Fair CLR 20.4 14.9 71% 75.82 0.0
04 20:35 S 11 16.09 Fair CLR 21.5 14.6 65% 75.79 0.0
04 20:15 S 9 16.09 Fair CLR 21.8 14.5 63% 75.79 0.0
04 19:55 S 11 16.09 Fair CLR 22.6 14.4 60% 75.79 0.0
04 19:35 S 13 16.09 Fair CLR 23.1 14.5 59% 75.79 0.0
04 19:15 S 15 16.09 Fair CLR 23.7 14.5 56% 75.79 0.0
04 18:55 S 15 16.09 Fair CLR 24.8 14.4 26.8 24.7 52% 26 75.82 0.0
04 18:35 S 13 16.09 Fair CLR 25.3 14.1 50% 26 75.82 0.0
Date Time (cdt) Wind (kph) Vis. (km) Weather Sky Cond. Air Dwpt Max. Min. Relative Humidity Wind Chill (°C) Heat Index (°C) altimeter (cm) sea level (mb) 1 hr 3 hr 6 hr
6 hour
Temperature (ºC) Pressure Precipitation (cm)